Detall de PIREP

Printer-friendly versionPDF version

[2013/04/16 08:15:00]
Flight IATA:CT1022
Pilot Number:042
Company ICAO:CAT
Aircraft Type:B744/E
PAX:0
Departing Airport: LPAZ
Destination Airport: LEBL
Alternate Airport:LEPA
Online: VATSIM
Route:BEKUN 3820N KOMUT DCT UREDI UN870 PONEN UT600 CASPE
Flight Level:F350
No Slew and time accel
No pause
Crash detect
Detect pilot in Cockpit between each 30 and 45 minutes
08:15 Zero fuel Weight: 394089 Lbs, Fuel Weight: 127471 Lbs
08:15 VATSIM:LPAZ 160730Z 21012KT 9999 FEW005 SCT011 15/15 Q1018
08:15 VATSIM:LEBL 160800Z 06006KT CAVOK 18/10 Q1022 NOSIG
08:15 VOICE CATALONIAN/BOEING TRANSPORT LEG 3
08:23 Parking Brakes off
08:28 Take-off
08:28 Take off Weight: 519417 Lbs
08:28 Wind: 262º @ 025 Knots Heading: 173º
08:28 POS N36º 58´ 31´´ W025º 10´ 18´´
08:28 Gear Up: 183 Knots
08:28 Flaps:4 at 183 Knots
08:28 Flaps:3 at 190 Knots
08:28 Flaps:2 at 192 Knots
08:29 Flaps:1 at 203 Knots
08:29 Flaps:0 at 218 Knots
08:40 TOC
08:40 Fuel Weight: 115343 Lb
08:43 Wind:259º@072 Knots Heading: 057º Ground Speed: 545 Knots Altitude 35052 ft
08:58 Wind:282º@057 Knots Heading: 087º Ground Speed: 514 Knots Altitude 42778 ft
09:13 Wind:287º@051 Knots Heading: 088º Ground Speed: 539 Knots Altitude 43211 ft
09:28 Wind:290º@065 Knots Heading: 067º Ground Speed: 530 Knots Altitude 43225 ft
09:43 Wind:292º@066 Knots Heading: 068º Ground Speed: 535 Knots Altitude 43244 ft
09:58 Wind:292º@076 Knots Heading: 069º Ground Speed: 533 Knots Altitude 42250 ft
10:13 Wind:292º@042 Knots Heading: 074º Ground Speed: 522 Knots Altitude 42240 ft
10:28 Wind:290º@058 Knots Heading: 063º Ground Speed: 529 Knots Altitude 42283 ft
10:43 Wind:297º@059 Knots Heading: 072º Ground Speed: 532 Knots Altitude 38809 ft
10:46 TOD
10:46 Fuel Weight: 77565 Lb
10:58 Wind:336º@027 Knots Heading: 050º Ground Speed: 282 Knots Altitude 10091 ft
11:07 Flaps:1 at 224 Knots
11:07 Flaps:2 at 223 Knots
11:08 Flaps:3 at 185 Knots
11:09 Flaps:5 at 180 Knots
11:09 Gear Down: 174 Knots
11:09 Flaps:6 at 173 Knots
11:12 TouchDown:Rate -158 ft/min Speed: 126 Knots
11:12 VATSIM:LEBL 161100Z 12006KT 090V170 9999 FEW015 19/11 Q1022 NOSIG
11:12 Land
11:12 Wind:212º@004 Knots
11:12 Heading: 245º
11:12 Flight Duration: 02:44
11:12 Landing Weight: 466426 Lbs
11:12 POS N41º 18´ 03´´ E002º 05´ 24´´
11:17 Parking brakes on
11:17 Block to Block Duration: 02:54
11:17 Final Fuel: 71102 Lbls
11:17 Spent Fuel: 56369 Lbls
11:17 Flight Length: 1345 NM
11:17 TOD Land Length: 135 NM

Exportar CSV

Powered by Drupal - Modified by Danger4k